Euro IV — IQNH — position and weather

sailwx.info

Track history (hours):
 
Tides and Currents Weather Stations Pressure Air Temp Water Temp Dewpoint Dewpoint Depression Visibility Wind Speed Wind Dir Waves Ship Positions

Euro IV

Last reported at 2014-Oct-17 09:05 UTC. Time now 2014-Oct-21 20:04 UTC.
Position N 44°06' E 009°50'.

Length 25 m; draft 1.3 m.

Type: Passenger vessel. MMSI: 247131500.

Date/timePositionNaut miles runAvg speedWind from/ knotsBaromVisibWave heightAir tempDewpointWater temp
2014-Oct-17 09:05N 44°06' E 009°50'0 0.0
2014-Oct-17 08:33N 44°06' E 009°50'0 0.0
2014-Oct-17 07:33N 44°06' E 009°50'0 0.0
2014-Oct-16 07:33N 44°06' E 009°50'8 0.4
2014-Oct-15 12:29N 44°09' E 009°39'0 0.0
2014-Oct-15 11:33N 44°09' E 009°39'4 4.0
2014-Oct-15 10:26N 44°06' E 009°44'5 6.1
2014-Oct-15 09:33N 44°04' E 009°51'2 2.4
2014-Oct-15 08:33N 44°06' E 009°50'0 0.0
2014-Oct-15 07:33N 44°06' E 009°50'0 0.0
2014-Oct-15 06:33N 44°06' E 009°50'0 0.0
2014-Oct-14 16:11N 44°06' E 009°50'4 6.6
2014-Oct-14 15:34N 44°05' E 009°44'5 4.9
2014-Oct-14 14:33N 44°03' E 009°50'0 0.3
2014-Oct-14 13:33N 44°03' E 009°50'9 9.4
2014-Oct-14 12:33N 44°09' E 009°39'0 0.0
2014-Oct-14 11:33N 44°09' E 009°39'2 2.4
2014-Oct-14 10:33N 44°07' E 009°42'7 7.2
2014-Oct-14 09:33N 44°03' E 009°50'0 0.0
2014-Oct-14 08:33N 44°03' E 009°50'3 3.4
2014-Oct-14 07:33N 44°04' E 009°55'  
2014-Oct-10 09:28N 44°06' E 009°49'3 3.4
2014-Oct-10 08:33N 44°03' E 009°50'  
2014-Oct-07 12:33N 44°04' E 009°52'  
Track history (hours):
 
Tides and Currents Weather Stations Pressure Air Temp Water Temp Dewpoint Dewpoint Depression Visibility Wind Speed Wind Dir Waves Ship Positions

Euro IV

Last reported at 2014-Oct-17 09:05 UTC. Time now 2014-Oct-21 20:04 UTC.
Position N 44°06' E 009°50'.

Length 25 m; draft 1.3 m.

Type: Passenger vessel. MMSI: 247131500.

Date/timePositionNaut miles runAvg speedWind from/ knotsBaromVisibWave heightAir tempDewpointWater temp
2014-Oct-17 09:05N 44°06' E 009°50'0 0.0
2014-Oct-17 08:33N 44°06' E 009°50'0 0.0
2014-Oct-17 07:33N 44°06' E 009°50'0 0.0
2014-Oct-16 07:33N 44°06' E 009°50'8 0.4
2014-Oct-15 12:29N 44°09' E 009°39'0 0.0
2014-Oct-15 11:33N 44°09' E 009°39'4 4.0
2014-Oct-15 10:26N 44°06' E 009°44'5 6.1
2014-Oct-15 09:33N 44°04' E 009°51'2 2.4
2014-Oct-15 08:33N 44°06' E 009°50'0 0.0
2014-Oct-15 07:33N 44°06' E 009°50'0 0.0
2014-Oct-15 06:33N 44°06' E 009°50'0 0.0
2014-Oct-14 16:11N 44°06' E 009°50'4 6.6
2014-Oct-14 15:34N 44°05' E 009°44'5 4.9
2014-Oct-14 14:33N 44°03' E 009°50'0 0.3
2014-Oct-14 13:33N 44°03' E 009°50'9 9.4
2014-Oct-14 12:33N 44°09' E 009°39'0 0.0
2014-Oct-14 11:33N 44°09' E 009°39'2 2.4
2014-Oct-14 10:33N 44°07' E 009°42'7 7.2
2014-Oct-14 09:33N 44°03' E 009°50'0 0.0
2014-Oct-14 08:33N 44°03' E 009°50'3 3.4
2014-Oct-14 07:33N 44°04' E 009°55'  
2014-Oct-10 09:28N 44°06' E 009°49'3 3.4
2014-Oct-10 08:33N 44°03' E 009°50'  
2014-Oct-07 12:33N 44°04' E 009°52'  

Dump ship's entire track history